createdAt,value
2022-07-26T00:01:48.593Z,100958.47
2022-07-26T00:04:16.007Z,100961.16
2022-07-26T00:06:45.018Z,100976.00
2022-07-26T00:09:12.382Z,100976.78
2022-07-26T00:11:39.713Z,100969.22
2022-07-26T00:14:08.815Z,100972.97
2022-07-26T00:16:37.664Z,100969.16
2022-07-26T00:19:07.681Z,100969.72
2022-07-26T00:21:36.921Z,100965.91
2022-07-26T00:24:10.049Z,100969.16
2022-07-26T00:26:37.497Z,100962.66
2022-07-26T00:29:06.162Z,100970.72
2022-07-26T00:31:33.915Z,100969.66
2022-07-26T00:34:01.426Z,100968.06
2022-07-26T00:36:29.755Z,100972.88
2022-07-26T00:38:57.174Z,100971.25
2022-07-26T00:41:25.888Z,100966.41
2022-07-26T00:43:59.260Z,100972.84
2022-07-26T00:46:26.788Z,100972.31
2022-07-26T00:48:54.576Z,100969.63
2022-07-26T00:51:22.471Z,100976.09
2022-07-26T00:53:50.322Z,100968.53
2022-07-26T00:56:18.138Z,100968.25
2022-07-26T00:58:46.936Z,100971.19
2022-07-26T01:01:14.284Z,100967.44
2022-07-26T01:03:42.295Z,100963.66
2022-07-26T01:06:09.866Z,100972.03
2022-07-26T01:08:37.736Z,100970.16
2022-07-26T01:11:05.541Z,100962.06
2022-07-26T01:13:35.463Z,100962.06
2022-07-26T01:16:05.132Z,100964.78
2022-07-26T01:18:32.472Z,100967.47
2022-07-26T01:21:13.863Z,100957.22
2022-07-26T01:23:44.274Z,100962.31
2022-07-26T01:26:12.631Z,100959.06
2022-07-26T01:28:42.465Z,100957.97
2022-07-26T01:31:10.011Z,100962.53
2022-07-26T01:33:37.466Z,100960.38
2022-07-26T01:36:05.628Z,100954.19
2022-07-26T01:38:33.037Z,100952.78
2022-07-26T01:41:01.864Z,100953.31
2022-07-26T01:43:29.127Z,100947.38
2022-07-26T01:45:56.699Z,100954.63
2022-07-26T01:48:24.468Z,100960.03
2022-07-26T01:50:54.922Z,100960.00
2022-07-26T01:53:23.652Z,100954.88
2022-07-26T01:55:51.112Z,100950.56
2022-07-26T01:58:20.121Z,100954.84
2022-07-26T02:00:48.166Z,100956.19
2022-07-26T02:03:15.602Z,100964.53
2022-07-26T02:05:43.056Z,100966.69
2022-07-26T02:08:11.174Z,100962.34
2022-07-26T02:10:57.944Z,100961.03
2022-07-26T02:13:26.955Z,100953.22
2022-07-26T02:15:54.380Z,100948.88
2022-07-26T02:18:21.684Z,100956.97
2022-07-26T02:20:48.989Z,100963.41
2022-07-26T02:23:16.298Z,100967.72
2022-07-26T02:25:43.683Z,100971.25
2022-07-26T02:28:11.027Z,100965.84
2022-07-26T02:30:40.207Z,100967.19
2022-07-26T02:33:07.770Z,100967.19
2022-07-26T02:35:35.471Z,100968.78
2022-07-26T02:38:04.780Z,100966.69
2022-07-26T02:40:33.047Z,100963.97
2022-07-26T02:43:00.551Z,100966.69
2022-07-26T02:45:28.552Z,100967.47
2022-07-26T02:47:58.035Z,100962.06
2022-07-26T02:50:27.514Z,100971.47
2022-07-26T02:52:55.826Z,100973.91
2022-07-26T02:55:25.958Z,100977.09
2022-07-26T02:57:53.568Z,100977.88
2022-07-26T03:00:24.502Z,100986.47
2022-07-26T03:02:52.766Z,100988.88
2022-07-26T03:05:22.307Z,100993.44
2022-07-26T03:07:50.172Z,100996.69
2022-07-26T03:10:17.666Z,100996.44
2022-07-26T03:12:45.362Z,100994.84
2022-07-26T03:15:13.096Z,100998.59
2022-07-26T03:17:40.555Z,100992.41
2022-07-26T03:20:10.128Z,100999.41
2022-07-26T03:22:38.946Z,101005.84
2022-07-26T03:25:08.031Z,101010.44
2022-07-26T03:27:35.704Z,101007.44
2022-07-26T03:30:03.512Z,101000.16
2022-07-26T03:32:30.892Z,101002.56
2022-07-26T03:34:58.210Z,100998.25
2022-07-26T03:37:25.771Z,101005.75
2022-07-26T03:40:15.759Z,101003.59
2022-07-26T03:42:43.332Z,101005.44
2022-07-26T03:45:12.908Z,101002.53
2022-07-26T03:47:40.374Z,101011.66
2022-07-26T03:50:09.329Z,101012.19
2022-07-26T03:52:36.672Z,101014.91
2022-07-26T03:55:24.634Z,101011.16
2022-07-26T03:57:53.543Z,101018.13
2022-07-26T04:00:20.964Z,101012.75
2022-07-26T04:02:48.406Z,101021.91
2022-07-26T04:05:15.755Z,101021.66
2022-07-26T04:07:51.500Z,101022.19
2022-07-26T04:10:22.607Z,101020.59
2022-07-26T04:12:50.405Z,101030.53
2022-07-26T04:15:21.210Z,101035.91
2022-07-26T04:17:49.232Z,101034.59
2022-07-26T04:20:17.406Z,101034.88
2022-07-26T04:22:45.104Z,101044.06
2022-07-26T04:25:12.524Z,101039.25
2022-07-26T04:27:39.960Z,101042.44
2022-07-26T04:30:14.496Z,101041.38
2022-07-26T04:32:45.868Z,101042.44
2022-07-26T04:35:16.708Z,101048.38
2022-07-26T04:37:46.009Z,101042.47
2022-07-26T04:40:21.275Z,101046.22
2022-07-26T04:42:50.740Z,101042.75
2022-07-26T04:45:18.789Z,101045.69
2022-07-26T04:47:50.994Z,101048.09
2022-07-26T04:50:20.463Z,101043.22
2022-07-26T04:52:48.973Z,101042.41
2022-07-26T04:55:17.342Z,101044.56
2022-07-26T04:57:47.470Z,101043.81
2022-07-26T05:00:23.073Z,101036.59
2022-07-26T05:02:55.481Z,101045.75
2022-07-26T05:05:24.131Z,101042.56
2022-07-26T05:07:55.859Z,101047.94
2022-07-26T05:10:30.065Z,101050.09
2022-07-26T05:12:57.870Z,101045.81
2022-07-26T05:15:25.845Z,101046.38
2022-07-26T05:18:07.013Z,101048.56
2022-07-26T05:20:39.249Z,101050.19
2022-07-26T05:23:06.880Z,101051.81
2022-07-26T05:25:34.472Z,101058.28
2022-07-26T05:28:01.938Z,101061.50
2022-07-26T05:30:29.894Z,101060.69
2022-07-26T05:32:57.273Z,101067.41
2022-07-26T05:35:26.150Z,101075.97
2022-07-26T05:38:08.569Z,101079.66
2022-07-26T05:40:35.943Z,101086.59
2022-07-26T05:43:05.173Z,101086.88
2022-07-26T05:45:32.664Z,101100.06
2022-07-26T05:48:00.080Z,101107.06
2022-07-26T05:50:29.155Z,101101.69
2022-07-26T05:52:56.464Z,101105.44
2022-07-26T05:55:23.763Z,101120.81
2022-07-26T05:57:51.238Z,101110.53
2022-07-26T06:00:23.353Z,101120.19
2022-07-26T06:02:50.730Z,101125.81
2022-07-26T06:05:18.343Z,101130.16
2022-07-26T06:07:47.256Z,101136.34
2022-07-26T06:10:14.790Z,101133.88
2022-07-26T06:12:42.074Z,101138.22
2022-07-26T06:15:15.634Z,101137.13
2022-07-26T06:17:43.526Z,101134.22
2022-07-26T06:20:12.242Z,101127.78
2022-07-26T06:22:39.644Z,101125.97
2022-07-26T06:25:09.625Z,101132.44
2022-07-26T06:27:36.996Z,101135.19
2022-07-26T06:30:07.180Z,101132.53
2022-07-26T06:32:34.499Z,101146.03
2022-07-26T06:35:01.905Z,101156.31
2022-07-26T06:37:29.346Z,101140.22
2022-07-26T06:39:56.703Z,101145.94
2022-07-26T06:42:25.897Z,101150.81
2022-07-26T06:44:53.195Z,101154.88
2022-07-26T06:47:20.694Z,101150.59
2022-07-26T06:49:48.057Z,101157.06
2022-07-26T06:52:15.432Z,101165.19
2022-07-26T06:54:42.811Z,101171.91
2022-07-26T06:57:10.407Z,101176.44
2022-07-26T06:59:39.324Z,101174.28
2022-07-26T07:02:06.828Z,101179.63
2022-07-26T07:04:34.524Z,101191.38
2022-07-26T07:07:08.559Z,101192.97
2022-07-26T07:09:37.658Z,101197.81
2022-07-26T07:12:09.805Z,101198.34
2022-07-26T07:14:39.853Z,101191.38
2022-07-26T07:17:12.183Z,101194.69
2022-07-26T07:19:41.482Z,101194.78
2022-07-26T07:22:11.837Z,101193.22
2022-07-26T07:24:40.832Z,101194.41
2022-07-26T07:27:08.834Z,101192.03
2022-07-26T07:29:41.363Z,101205.56
2022-07-26T07:32:18.553Z,101207.50
2022-07-26T07:34:48.139Z,101205.91
2022-07-26T07:37:15.926Z,101200.03
2022-07-26T07:39:43.322Z,101203.81
2022-07-26T07:42:10.677Z,101214.56
2022-07-26T07:44:41.397Z,101218.75
2022-07-26T07:47:09.059Z,101228.31
2022-07-26T07:49:37.543Z,101235.47
2022-07-26T07:52:05.542Z,101239.13
2022-07-26T07:54:33.117Z,101247.94
2022-07-26T07:57:00.537Z,101245.50
2022-07-26T07:59:27.985Z,101245.84
2022-07-26T08:01:57.563Z,101250.22
2022-07-26T08:04:24.942Z,101259.34
2022-07-26T08:06:52.413Z,101262.81
2022-07-26T08:09:20.836Z,101270.66
2022-07-26T08:11:51.006Z,101269.34
2022-07-26T08:14:18.976Z,101269.13
2022-07-26T08:16:46.791Z,101268.69
2022-07-26T08:19:16.278Z,101260.50
2022-07-26T08:21:46.709Z,101269.81
2022-07-26T08:24:14.493Z,101270.09
2022-07-26T08:26:41.846Z,101281.53
2022-07-26T08:29:09.271Z,101282.63
2022-07-26T08:31:36.787Z,101292.34
2022-07-26T08:34:04.339Z,101292.28
2022-07-26T08:36:33.336Z,101293.09
2022-07-26T08:39:00.923Z,101299.00
2022-07-26T08:41:28.697Z,101294.63
2022-07-26T08:44:05.008Z,101294.81
2022-07-26T08:46:36.571Z,101300.59
2022-07-26T08:49:06.862Z,101314.38
2022-07-26T08:51:40.728Z,101309.28
2022-07-26T08:54:08.123Z,101316.41
2022-07-26T08:56:40.737Z,101338.81
2022-07-26T08:59:20.340Z,101337.81
2022-07-26T09:01:57.280Z,101350.19
2022-07-26T09:04:32.160Z,101347.34
2022-07-26T09:07:06.737Z,101355.31
2022-07-26T09:09:37.943Z,101355.19
2022-07-26T09:12:17.201Z,101363.84
2022-07-26T09:14:48.099Z,101363.50
2022-07-26T09:17:18.538Z,101368.03
2022-07-26T09:20:02.310Z,101369.69
2022-07-26T09:22:31.295Z,101364.88
2022-07-26T09:24:59.510Z,101372.59
2022-07-26T09:27:36.854Z,101376.44
2022-07-26T09:30:08.556Z,101382.34
2022-07-26T09:32:36.892Z,101372.69
2022-07-26T09:35:45.444Z,101393.50
2022-07-26T09:38:11.779Z,101378.56
2022-07-26T09:40:39.320Z,101378.06
2022-07-26T09:43:09.901Z,101385.34
2022-07-26T09:45:38.867Z,101385.84
2022-07-26T09:48:11.558Z,101388.34
2022-07-26T09:50:39.231Z,101391.97
2022-07-26T09:53:10.702Z,101392.38
2022-07-26T09:55:56.660Z,101399.75
2022-07-26T09:58:27.965Z,101405.09
2022-07-26T10:01:00.426Z,101413.75
2022-07-26T10:03:31.389Z,101414.00
2022-07-26T10:05:59.370Z,101418.56
2022-07-26T10:08:29.760Z,101413.47
2022-07-26T10:11:06.991Z,101415.66
2022-07-26T10:13:34.852Z,101420.03
2022-07-26T10:16:02.310Z,101427.31
2022-07-26T10:18:50.702Z,101433.47
2022-07-26T10:21:22.066Z,101428.06
2022-07-26T10:23:53.259Z,101432.41
2022-07-26T10:26:38.949Z,101427.81
2022-07-26T10:29:28.060Z,101423.81
2022-07-26T10:32:20.197Z,101436.78
2022-07-26T10:34:48.173Z,101438.16
2022-07-26T10:37:28.039Z,101441.69
2022-07-26T10:40:30.038Z,101438.97
2022-07-26T10:43:38.868Z,101444.88
2022-07-26T10:46:28.030Z,101455.34
2022-07-26T10:49:01.636Z,101448.53
2022-07-26T10:51:34.576Z,101452.31
2022-07-26T10:54:03.168Z,101452.56
2022-07-26T10:56:33.683Z,101450.69
2022-07-26T10:59:02.016Z,101456.63
2022-07-26T11:01:34.290Z,101461.22
2022-07-26T11:04:03.797Z,101461.53
2022-07-26T11:06:32.363Z,101462.59
2022-07-26T11:09:11.111Z,101469.66
2022-07-26T11:11:40.068Z,101470.47
2022-07-26T11:14:17.860Z,101458.91
2022-07-26T11:16:49.902Z,101462.72
2022-07-26T11:19:19.417Z,101467.59
2022-07-26T11:21:53.829Z,101474.13
2022-07-26T11:24:22.145Z,101477.94
2022-07-26T11:26:51.172Z,101473.34
2022-07-26T11:29:35.146Z,101473.09
2022-07-26T11:32:17.875Z,101476.56
2022-07-26T11:34:46.779Z,101488.16
2022-07-26T11:37:14.790Z,101488.63
2022-07-26T11:39:42.149Z,101495.09
2022-07-26T11:42:15.078Z,101501.00
2022-07-26T11:44:45.175Z,101502.53
2022-07-26T11:47:14.563Z,101506.88
2022-07-26T11:49:52.277Z,101505.03
2022-07-26T11:52:31.552Z,101502.69
2022-07-26T11:54:59.724Z,101504.34
2022-07-26T11:57:32.544Z,101498.94
2022-07-26T12:00:01.512Z,101516.19
2022-07-26T12:02:30.709Z,101521.56
2022-07-26T12:05:19.126Z,101524.72
2022-07-26T12:07:56.331Z,101529.47
2022-07-26T12:10:24.352Z,101524.81
2022-07-26T12:13:08.133Z,101523.13
2022-07-26T12:15:48.932Z,101525.53
2022-07-26T12:18:24.819Z,101533.59
2022-07-26T12:21:06.670Z,101532.19
2022-07-26T12:23:43.955Z,101543.72
2022-07-26T12:26:23.362Z,101536.59
2022-07-26T12:28:53.184Z,101540.06
2022-07-26T12:31:25.793Z,101543.28
2022-07-26T12:33:53.572Z,101538.13
2022-07-26T12:36:28.114Z,101532.19
2022-07-26T12:38:57.753Z,101545.69
2022-07-26T12:41:37.026Z,101539.69
2022-07-26T12:44:07.324Z,101536.00
2022-07-26T12:46:36.518Z,101539.53
2022-07-26T12:49:04.911Z,101532.81
2022-07-26T12:51:32.595Z,101540.47
2022-07-26T12:54:00.251Z,101537.31
2022-07-26T12:56:27.687Z,101536.25
2022-07-26T12:59:01.158Z,101536.84
2022-07-26T13:01:32.016Z,101539.06
2022-07-26T13:03:59.969Z,101534.28
2022-07-26T13:06:27.635Z,101526.81
2022-07-26T13:08:56.415Z,101529.94
2022-07-26T13:11:24.073Z,101535.13
2022-07-26T13:13:51.409Z,101543.25
2022-07-26T13:16:18.848Z,101543.25
2022-07-26T13:18:48.119Z,101544.88
2022-07-26T13:21:15.492Z,101554.06
2022-07-26T13:23:43.154Z,101545.16
2022-07-26T13:26:10.652Z,101547.84
2022-07-26T13:28:39.971Z,101549.72
2022-07-26T13:31:07.512Z,101550.78
2022-07-26T13:33:35.305Z,101546.72
2022-07-26T13:36:04.244Z,101554.03
2022-07-26T13:38:34.302Z,101556.75
2022-07-26T13:41:02.886Z,101554.66
2022-07-26T13:43:35.251Z,101551.41
2022-07-26T13:46:02.999Z,101546.03
2022-07-26T13:48:30.362Z,101552.50
2022-07-26T13:50:58.041Z,101553.06
2022-07-26T13:53:26.755Z,101556.53
2022-07-26T13:55:54.270Z,101554.59
2022-07-26T13:58:22.012Z,101555.06
2022-07-26T14:00:49.684Z,101566.38
2022-07-26T14:03:20.556Z,101568.03
2022-07-26T14:05:48.606Z,101553.31
2022-07-26T14:08:15.974Z,101552.38
2022-07-26T14:10:44.804Z,101556.22
2022-07-26T14:13:12.457Z,101556.47
2022-07-26T14:15:39.790Z,101555.41
2022-07-26T14:18:07.241Z,101559.22
2022-07-26T14:20:34.650Z,101561.09
2022-07-26T14:23:01.950Z,101557.56
2022-07-26T14:25:29.258Z,101562.66
2022-07-26T14:28:01.211Z,101564.03
2022-07-26T14:30:32.245Z,101556.72
2022-07-26T14:33:00.659Z,101566.69
2022-07-26T14:35:28.238Z,101569.09
2022-07-26T14:37:55.622Z,101571.00
2022-07-26T14:40:23.047Z,101566.41
2022-07-26T14:42:50.881Z,101572.59
2022-07-26T14:45:20.000Z,101574.16
2022-07-26T14:47:47.504Z,101580.31
2022-07-26T14:50:15.742Z,101580.56
2022-07-26T14:52:46.239Z,101586.50
2022-07-26T14:55:14.810Z,101585.44
2022-07-26T14:57:43.026Z,101583.31
2022-07-26T15:00:14.739Z,101583.88
2022-07-26T15:02:46.981Z,101579.84
2022-07-26T15:05:15.780Z,101582.25
2022-07-26T15:07:44.354Z,101584.97
2022-07-26T15:10:13.898Z,101577.66
2022-07-26T15:12:42.171Z,101582.25
2022-07-26T15:15:11.165Z,101590.91
2022-07-26T15:17:39.172Z,101589.81
2022-07-26T15:20:09.337Z,101581.44
2022-07-26T15:22:36.777Z,101593.31
2022-07-26T15:25:05.188Z,101590.81
2022-07-26T15:27:32.880Z,101597.81
2022-07-26T15:30:05.066Z,101592.88
2022-07-26T15:32:34.837Z,101595.25
2022-07-26T15:35:02.793Z,101594.44
2022-07-26T15:37:31.604Z,101596.34
2022-07-26T15:39:59.708Z,101597.16
2022-07-26T15:42:29.764Z,101596.63
2022-07-26T15:44:57.240Z,101593.91
2022-07-26T15:47:52.831Z,101589.31
2022-07-26T15:50:14.719Z,101596.06
2022-07-26T15:52:47.090Z,101589.56
2022-07-26T15:55:17.894Z,101591.44
2022-07-26T15:57:46.122Z,101593.81
2022-07-26T16:00:16.129Z,101591.88
2022-07-26T16:02:43.625Z,101591.34
2022-07-26T16:05:12.262Z,101593.22
2022-07-26T16:07:41.630Z,101594.81
2022-07-26T16:10:13.796Z,101594.78
2022-07-26T16:12:42.623Z,101594.19
2022-07-26T16:15:12.177Z,101593.59
2022-07-26T16:17:40.308Z,101594.66
2022-07-26T16:20:09.283Z,101595.66
2022-07-26T16:22:41.158Z,101597.81
2022-07-26T16:25:13.707Z,101595.16
2022-07-26T16:27:43.049Z,101590.91
2022-07-26T16:30:13.081Z,101587.81
2022-07-26T16:32:40.878Z,101595.53
2022-07-26T16:35:09.615Z,101592.00
2022-07-26T16:37:38.021Z,101594.34
2022-07-26T16:40:07.684Z,101592.88
2022-07-26T16:42:36.514Z,101589.16
2022-07-26T16:45:04.675Z,101603.19
2022-07-26T16:47:32.036Z,101595.59
2022-07-26T16:49:59.415Z,101592.88
2022-07-26T16:52:26.849Z,101603.09
2022-07-26T16:54:54.138Z,101606.25
2022-07-26T16:57:21.615Z,101602.69
2022-07-26T16:59:50.489Z,101607.50
2022-07-26T17:02:17.930Z,101611.25
2022-07-26T17:04:45.319Z,101610.41
2022-07-26T17:07:25.199Z,101610.34
2022-07-26T17:09:55.298Z,101613.50
2022-07-26T17:12:23.083Z,101599.34
2022-07-26T17:14:52.023Z,101605.94
2022-07-26T17:17:19.359Z,101604.03
2022-07-26T17:19:47.022Z,101618.06
2022-07-26T17:22:14.659Z,101608.91
2022-07-26T17:24:42.057Z,101617.25
2022-07-26T17:27:09.603Z,101609.38
2022-07-26T17:29:36.977Z,101605.78
2022-07-26T17:32:06.994Z,101611.34
2022-07-26T17:34:34.767Z,101615.56
2022-07-26T17:37:05.976Z,101617.09
2022-07-26T17:39:52.285Z,101613.28
2022-07-26T17:42:21.117Z,101611.13
2022-07-26T17:44:48.509Z,101606.34
2022-07-26T17:47:28.151Z,101618.75
2022-07-26T17:50:14.090Z,101613.00
2022-07-26T17:52:47.414Z,101629.06
2022-07-26T17:55:14.991Z,101624.44
2022-07-26T17:57:42.542Z,101625.97
2022-07-26T18:00:11.590Z,101621.56
2022-07-26T18:02:40.796Z,101623.13
2022-07-26T18:05:09.116Z,101624.44
2022-07-26T18:07:36.825Z,101625.84
2022-07-26T18:10:05.786Z,101625.91
2022-07-26T18:12:33.194Z,101629.16
2022-07-26T18:15:00.529Z,101620.50
2022-07-26T18:17:27.878Z,101624.25
2022-07-26T18:19:56.569Z,101625.06
2022-07-26T18:22:24.058Z,101621.81
2022-07-26T18:24:51.469Z,101629.34
2022-07-26T18:27:19.584Z,101629.03
2022-07-26T18:29:47.164Z,101632.25
2022-07-26T18:32:15.229Z,101626.78
2022-07-26T18:34:51.664Z,101629.88
2022-07-26T18:37:21.847Z,101634.38
2022-07-26T18:39:52.833Z,101643.22
2022-07-26T18:42:24.507Z,101627.50
2022-07-26T18:44:52.013Z,101639.22
2022-07-26T18:47:19.447Z,101637.75
2022-07-26T18:49:46.867Z,101639.09
2022-07-26T18:52:14.898Z,101635.78
2022-07-26T18:54:43.698Z,101640.84
2022-07-26T18:57:11.097Z,101635.88
2022-07-26T18:59:38.758Z,101629.00
2022-07-26T19:02:07.347Z,101626.25
2022-07-26T19:04:34.847Z,101634.25
2022-07-26T19:07:02.198Z,101631.22
2022-07-26T19:09:29.564Z,101639.56
2022-07-26T19:11:58.263Z,101637.34
2022-07-26T19:14:25.734Z,101636.44
2022-07-26T19:16:53.094Z,101639.03
2022-07-26T19:19:20.392Z,101648.91
2022-07-26T19:21:49.295Z,101645.06
2022-07-26T19:24:16.712Z,101649.63
2022-07-26T19:26:44.255Z,101657.72
2022-07-26T19:29:13.467Z,101651.75
2022-07-26T19:31:41.956Z,101662.16
2022-07-26T19:34:09.363Z,101660.44
2022-07-26T19:36:36.767Z,101659.25
2022-07-26T19:39:04.621Z,101663.22
2022-07-26T19:41:32.058Z,101666.19
2022-07-26T19:43:59.607Z,101665.59
2022-07-26T19:46:28.524Z,101666.91
2022-07-26T19:48:56.060Z,101669.25
2022-07-26T19:51:23.539Z,101672.66
2022-07-26T19:53:51.196Z,101676.88
2022-07-26T19:56:18.568Z,101686.81
2022-07-26T19:58:46.241Z,101687.28
2022-07-26T20:01:13.829Z,101681.22
2022-07-26T20:03:42.645Z,101686.41
2022-07-26T20:06:10.294Z,101687.00
2022-07-26T20:08:37.814Z,101690.88
2022-07-26T20:11:05.167Z,101695.09
2022-07-26T20:13:32.658Z,101696.00
2022-07-26T20:16:03.078Z,101697.72
2022-07-26T20:18:30.857Z,101704.88
2022-07-26T20:20:59.698Z,101703.69
2022-07-26T20:23:28.786Z,101704.19
2022-07-26T20:25:56.335Z,101708.16
2022-07-26T20:28:23.676Z,101707.00
2022-07-26T20:30:51.748Z,101711.53
2022-07-26T20:33:19.366Z,101711.75
2022-07-26T20:35:49.313Z,101708.84
2022-07-26T20:38:21.727Z,101717.50
2022-07-26T20:40:49.149Z,101710.47
2022-07-26T20:43:17.229Z,101711.28
2022-07-26T20:45:44.896Z,101713.16
2022-07-26T20:48:12.240Z,101708.84
2022-07-26T20:50:39.637Z,101708.03
2022-07-26T20:53:06.933Z,101705.59
2022-07-26T20:55:35.667Z,101717.63
2022-07-26T20:58:03.156Z,101712.94
2022-07-26T21:00:30.614Z,101723.91
2022-07-26T21:03:00.183Z,101717.13
2022-07-26T21:05:32.348Z,101721.09
2022-07-26T21:08:00.297Z,101720.16
2022-07-26T21:10:29.358Z,101722.25
2022-07-26T21:13:00.357Z,101725.41
2022-07-26T21:15:28.536Z,101725.41
2022-07-26T21:17:56.121Z,101728.31
2022-07-26T21:20:23.738Z,101722.13
2022-07-26T21:22:51.096Z,101728.53
2022-07-26T21:25:18.526Z,101727.97
2022-07-26T21:27:45.927Z,101729.81
2022-07-26T21:30:14.862Z,101724.69
2022-07-26T21:32:42.198Z,101725.72
2022-07-26T21:35:09.831Z,101724.69
2022-07-26T21:37:37.166Z,101729.25
2022-07-26T21:40:06.096Z,101735.19
2022-07-26T21:42:33.486Z,101735.44
2022-07-26T21:45:00.856Z,101730.50
2022-07-26T21:47:29.647Z,101729.69
2022-07-26T21:49:57.017Z,101733.06
2022-07-26T21:52:24.387Z,101731.91
2022-07-26T21:54:51.765Z,101735.63
2022-07-26T21:57:19.140Z,101730.03
2022-07-26T21:59:46.506Z,101735.41
2022-07-26T22:02:14.120Z,101728.16
2022-07-26T22:04:48.663Z,101734.13
2022-07-26T22:07:16.169Z,101738.88
2022-07-26T22:09:43.458Z,101739.34
2022-07-26T22:12:11.548Z,101743.06
2022-07-26T22:14:38.902Z,101736.50
2022-07-26T22:17:06.257Z,101738.00
2022-07-26T22:19:33.596Z,101737.41
2022-07-26T22:22:05.462Z,101736.63
2022-07-26T22:24:32.933Z,101738.34
2022-07-26T22:27:00.268Z,101731.31
2022-07-26T22:29:28.017Z,101743.31
2022-07-26T22:32:07.212Z,101737.16
2022-07-26T22:34:34.573Z,101733.88
2022-07-26T22:37:03.261Z,101735.50
2022-07-26T22:39:30.611Z,101740.06
2022-07-26T22:42:14.833Z,101736.78
2022-07-26T22:44:42.949Z,101744.69
2022-07-26T22:47:10.299Z,101737.31
2022-07-26T22:49:37.690Z,101736.34
2022-07-26T22:52:06.792Z,101736.00
2022-07-26T22:54:34.267Z,101736.69
2022-07-26T22:57:01.687Z,101733.03
2022-07-26T22:59:29.135Z,101726.94
2022-07-26T23:01:56.979Z,101736.50
2022-07-26T23:04:24.508Z,101736.94
2022-07-26T23:06:52.362Z,101742.72
2022-07-26T23:09:23.661Z,101739.47
2022-07-26T23:11:50.966Z,101737.00
2022-07-26T23:14:18.306Z,101743.19
2022-07-26T23:16:45.697Z,101732.88
2022-07-26T23:19:13.638Z,101731.06
2022-07-26T23:21:41.222Z,101734.09
2022-07-26T23:24:08.892Z,101727.84
2022-07-26T23:26:38.223Z,101730.22
2022-07-26T23:29:05.623Z,101730.50
2022-07-26T23:31:32.976Z,101732.16
2022-07-26T23:34:00.523Z,101732.16
2022-07-26T23:36:28.932Z,101725.13
2022-07-26T23:38:58.237Z,101733.03
2022-07-26T23:41:27.044Z,101725.91
2022-07-26T23:43:56.222Z,101739.38
2022-07-26T23:46:25.224Z,101730.38
2022-07-26T23:48:53.112Z,101736.19
2022-07-26T23:51:22.782Z,101732.88
2022-07-26T23:53:50.939Z,101733.91
2022-07-26T23:56:18.528Z,101727.13
2022-07-26T23:58:46.363Z,101727.59
